sensor_id;sensor_type;location;lat;lon;timestamp;P1;durP1;ratioP1;P2;durP2;ratioP2
77164;SDS011;66140;50.280;18.660;2023-04-30T04:02:43;26.17;;;14.00;;
77164;SDS011;66140;50.280;18.660;2023-04-30T04:05:28;28.58;;;15.43;;
77164;SDS011;66140;50.280;18.660;2023-04-30T04:07:53;27.33;;;12.68;;
77164;SDS011;66140;50.280;18.660;2023-04-30T04:10:19;20.53;;;13.53;;
77164;SDS011;66140;50.280;18.660;2023-04-30T04:12:44;22.92;;;12.95;;
77164;SDS011;66140;50.280;18.660;2023-04-30T04:15:10;25.45;;;13.68;;
77164;SDS011;66140;50.280;18.660;2023-04-30T04:17:35;14.98;;;8.63;;
77164;SDS011;66140;50.280;18.660;2023-04-30T04:20:01;23.90;;;12.98;;
77164;SDS011;66140;50.280;18.660;2023-04-30T04:22:26;26.08;;;13.10;;
77164;SDS011;66140;50.280;18.660;2023-04-30T04:24:52;23.00;;;14.00;;
77164;SDS011;66140;50.280;18.660;2023-04-30T04:27:18;25.85;;;13.48;;
77164;SDS011;66140;50.280;18.660;2023-04-30T04:29:44;28.05;;;14.00;;
77164;SDS011;66140;50.280;18.660;2023-04-30T04:32:10;22.88;;;12.82;;
77164;SDS011;66140;50.280;18.660;2023-04-30T04:34:35;22.05;;;12.55;;
77164;SDS011;66140;50.280;18.660;2023-04-30T04:37:02;28.77;;;13.98;;
77164;SDS011;66140;50.280;18.660;2023-04-30T04:39:27;20.42;;;11.80;;
77164;SDS011;66140;50.280;18.660;2023-04-30T04:41:53;21.35;;;12.10;;
77164;SDS011;66140;50.280;18.660;2023-04-30T04:44:19;20.00;;;11.05;;
77164;SDS011;66140;50.280;18.660;2023-04-30T04:46:44;16.98;;;11.40;;
77164;SDS011;66140;50.280;18.660;2023-04-30T04:49:09;18.27;;;11.50;;
77164;SDS011;66140;50.280;18.660;2023-04-30T04:51:36;20.02;;;10.85;;
77164;SDS011;66140;50.280;18.660;2023-04-30T04:54:03;17.92;;;9.73;;
77164;SDS011;66140;50.280;18.660;2023-04-30T04:56:29;22.52;;;11.02;;
77164;SDS011;66140;50.280;18.660;2023-04-30T04:58:54;19.23;;;10.57;;
77164;SDS011;66140;50.280;18.660;2023-04-30T05:01:19;17.80;;;10.80;;
77164;SDS011;66140;50.280;18.660;2023-04-30T05:03:45;20.23;;;10.15;;
77164;SDS011;66140;50.280;18.660;2023-04-30T05:06:11;20.08;;;11.50;;
77164;SDS011;66140;50.280;18.660;2023-04-30T05:08:36;20.42;;;11.00;;
77164;SDS011;66140;50.280;18.660;2023-04-30T05:11:02;21.73;;;11.60;;
77164;SDS011;66140;50.280;18.660;2023-04-30T05:13:27;14.40;;;8.00;;
77164;SDS011;66140;50.280;18.660;2023-04-30T05:15:53;15.87;;;10.40;;
77164;SDS011;66140;50.280;18.660;2023-04-30T05:18:18;14.38;;;8.95;;
77164;SDS011;66140;50.280;18.660;2023-04-30T05:20:44;13.98;;;7.18;;
77164;SDS011;66140;50.280;18.660;2023-04-30T05:23:10;18.25;;;10.40;;
77164;SDS011;66140;50.280;18.660;2023-04-30T05:25:35;16.02;;;10.32;;
77164;SDS011;66140;50.280;18.660;2023-04-30T05:28:01;17.48;;;9.95;;
77164;SDS011;66140;50.280;18.660;2023-04-30T05:30:27;17.65;;;9.95;;
77164;SDS011;66140;50.280;18.660;2023-04-30T05:32:52;16.25;;;9.20;;
77164;SDS011;66140;50.280;18.660;2023-04-30T05:35:18;15.32;;;9.73;;
77164;SDS011;66140;50.280;18.660;2023-04-30T05:37:44;15.13;;;8.90;;
77164;SDS011;66140;50.280;18.660;2023-04-30T05:40:10;17.55;;;8.80;;
77164;SDS011;66140;50.280;18.660;2023-04-30T05:42:36;15.48;;;9.65;;
77164;SDS011;66140;50.280;18.660;2023-04-30T05:45:02;18.10;;;9.20;;
77164;SDS011;66140;50.280;18.660;2023-04-30T05:47:28;19.80;;;8.70;;
77164;SDS011;66140;50.280;18.660;2023-04-30T05:49:53;15.27;;;8.93;;
77164;SDS011;66140;50.280;18.660;2023-04-30T05:52:19;15.48;;;9.23;;
77164;SDS011;66140;50.280;18.660;2023-04-30T05:54:44;13.50;;;8.43;;
77164;SDS011;66140;50.280;18.660;2023-04-30T05:57:09;17.38;;;9.48;;
77164;SDS011;66140;50.280;18.660;2023-04-30T05:59:35;13.77;;;8.43;;
77164;SDS011;66140;50.280;18.660;2023-04-30T06:02:00;12.77;;;8.27;;
77164;SDS011;66140;50.280;18.660;2023-04-30T06:04:25;11.30;;;7.47;;
77164;SDS011;66140;50.280;18.660;2023-04-30T06:06:51;12.02;;;7.82;;
77164;SDS011;66140;50.280;18.660;2023-04-30T06:09:16;15.10;;;8.63;;
77164;SDS011;66140;50.280;18.660;2023-04-30T06:11:42;12.30;;;6.72;;
77164;SDS011;66140;50.280;18.660;2023-04-30T06:14:09;14.10;;;7.82;;
77164;SDS011;66140;50.280;18.660;2023-04-30T06:16:34;12.07;;;7.45;;
77164;SDS011;66140;50.280;18.660;2023-04-30T06:19:00;13.05;;;8.45;;
77164;SDS011;66140;50.280;18.660;2023-04-30T06:21:25;12.23;;;7.13;;
77164;SDS011;66140;50.280;18.660;2023-04-30T06:23:51;10.63;;;7.15;;
77164;SDS011;66140;50.280;18.660;2023-04-30T06:26:18;14.10;;;8.00;;
77164;SDS011;66140;50.280;18.660;2023-04-30T06:28:43;14.20;;;7.65;;
77164;SDS011;66140;50.280;18.660;2023-04-30T06:31:09;11.40;;;6.50;;
77164;SDS011;66140;50.280;18.660;2023-04-30T06:33:34;12.10;;;6.85;;
77164;SDS011;66140;50.280;18.660;2023-04-30T06:36:00;11.43;;;6.83;;
77164;SDS011;66140;50.280;18.660;2023-04-30T06:38:25;9.20;;;5.83;;
77164;SDS011;66140;50.280;18.660;2023-04-30T06:40:50;11.13;;;5.80;;
77164;SDS011;66140;50.280;18.660;2023-04-30T06:43:16;9.38;;;5.40;;
77164;SDS011;66140;50.280;18.660;2023-04-30T06:45:41;9.00;;;5.17;;
77164;SDS011;66140;50.280;18.660;2023-04-30T06:48:07;9.40;;;5.47;;
77164;SDS011;66140;50.280;18.660;2023-04-30T06:50:32;10.10;;;6.03;;
77164;SDS011;66140;50.280;18.660;2023-04-30T06:52:57;11.60;;;5.50;;
77164;SDS011;66140;50.280;18.660;2023-04-30T06:55:23;12.30;;;5.55;;
77164;SDS011;66140;50.280;18.660;2023-04-30T06:57:49;8.60;;;5.53;;
77164;SDS011;66140;50.280;18.660;2023-04-30T07:00:14;8.98;;;4.93;;
77164;SDS011;66140;50.280;18.660;2023-04-30T07:02:40;10.15;;;5.70;;
77164;SDS011;66140;50.280;18.660;2023-04-30T07:05:06;8.85;;;5.57;;
77164;SDS011;66140;50.280;18.660;2023-04-30T07:07:31;8.48;;;4.97;;
77164;SDS011;66140;50.280;18.660;2023-04-30T07:09:57;8.00;;;5.20;;
77164;SDS011;66140;50.280;18.660;2023-04-30T07:12:23;11.40;;;5.57;;
77164;SDS011;66140;50.280;18.660;2023-04-30T07:14:48;8.77;;;5.45;;
77164;SDS011;66140;50.280;18.660;2023-04-30T07:17:13;8.27;;;4.50;;
77164;SDS011;66140;50.280;18.660;2023-04-30T07:19:39;8.52;;;5.30;;
77164;SDS011;66140;50.280;18.660;2023-04-30T07:22:04;9.85;;;5.13;;
77164;SDS011;66140;50.280;18.660;2023-04-30T07:24:30;7.30;;;4.55;;
77164;SDS011;66140;50.280;18.660;2023-04-30T07:26:55;7.03;;;5.22;;
77164;SDS011;66140;50.280;18.660;2023-04-30T07:29:21;6.25;;;4.45;;
77164;SDS011;66140;50.280;18.660;2023-04-30T07:31:46;9.52;;;4.93;;
77164;SDS011;66140;50.280;18.660;2023-04-30T07:34:12;8.15;;;4.82;;
77164;SDS011;66140;50.280;18.660;2023-04-30T07:36:37;6.88;;;4.80;;
77164;SDS011;66140;50.280;18.660;2023-04-30T07:39:03;8.90;;;5.03;;
77164;SDS011;66140;50.280;18.660;2023-04-30T07:41:29;7.88;;;4.88;;
77164;SDS011;66140;50.280;18.660;2023-04-30T07:43:55;5.90;;;3.33;;
77164;SDS011;66140;50.280;18.660;2023-04-30T07:46:20;8.30;;;5.15;;
77164;SDS011;66140;50.280;18.660;2023-04-30T07:48:46;6.75;;;4.38;;
77164;SDS011;66140;50.280;18.660;2023-04-30T07:51:12;8.85;;;4.80;;
77164;SDS011;66140;50.280;18.660;2023-04-30T07:53:37;5.63;;;4.03;;
77164;SDS011;66140;50.280;18.660;2023-04-30T07:56:02;8.17;;;4.13;;
77164;SDS011;66140;50.280;18.660;2023-04-30T07:58:28;7.00;;;4.18;;
77164;SDS011;66140;50.280;18.660;2023-04-30T08:00:54;9.32;;;4.72;;
77164;SDS011;66140;50.280;18.660;2023-04-30T08:03:19;6.38;;;4.10;;
77164;SDS011;66140;50.280;18.660;2023-04-30T08:05:45;7.90;;;4.43;;
77164;SDS011;66140;50.280;18.660;2023-04-30T08:08:11;5.82;;;3.83;;
77164;SDS011;66140;50.280;18.660;2023-04-30T08:10:37;9.50;;;4.63;;
77164;SDS011;66140;50.280;18.660;2023-04-30T08:13:03;9.35;;;4.25;;
77164;SDS011;66140;50.280;18.660;2023-04-30T08:15:29;6.30;;;3.63;;
77164;SDS011;66140;50.280;18.660;2023-04-30T08:17:55;7.07;;;3.70;;
77164;SDS011;66140;50.280;18.660;2023-04-30T08:20:20;5.83;;;3.57;;
77164;SDS011;66140;50.280;18.660;2023-04-30T08:22:47;5.85;;;3.30;;
77164;SDS011;66140;50.280;18.660;2023-04-30T08:25:13;6.18;;;3.45;;
77164;SDS011;66140;50.280;18.660;2023-04-30T08:27:38;6.43;;;3.10;;
77164;SDS011;66140;50.280;18.660;2023-04-30T08:30:04;5.20;;;3.30;;
77164;SDS011;66140;50.280;18.660;2023-04-30T08:32:33;5.30;;;3.63;;
77164;SDS011;66140;50.280;18.660;2023-04-30T08:35:03;4.57;;;3.10;;
77164;SDS011;66140;50.280;18.660;2023-04-30T08:37:29;6.97;;;3.28;;
77164;SDS011;66140;50.280;18.660;2023-04-30T08:39:54;5.43;;;3.13;;
77164;SDS011;66140;50.280;18.660;2023-04-30T08:42:20;9.73;;;3.47;;
77164;SDS011;66140;50.280;18.660;2023-04-30T08:44:55;3.55;;;1.98;;
77164;SDS011;66140;50.280;18.660;2023-04-30T08:47:21;6.15;;;3.28;;
77164;SDS011;66140;50.280;18.660;2023-04-30T08:49:46;4.75;;;2.80;;
77164;SDS011;66140;50.280;18.660;2023-04-30T08:52:13;6.07;;;3.40;;
77164;SDS011;66140;50.280;18.660;2023-04-30T08:54:39;3.90;;;2.80;;
77164;SDS011;66140;50.280;18.660;2023-04-30T08:57:05;4.63;;;3.00;;
77164;SDS011;66140;50.280;18.660;2023-04-30T08:59:31;4.95;;;2.90;;
77164;SDS011;66140;50.280;18.660;2023-04-30T09:01:56;4.25;;;2.63;;
77164;SDS011;66140;50.280;18.660;2023-04-30T09:04:25;7.50;;;2.67;;
77164;SDS011;66140;50.280;18.660;2023-04-30T09:06:51;4.93;;;2.58;;
77164;SDS011;66140;50.280;18.660;2023-04-30T09:09:26;5.05;;;2.78;;
77164;SDS011;66140;50.280;18.660;2023-04-30T09:11:56;5.65;;;2.90;;
77164;SDS011;66140;50.280;18.660;2023-04-30T09:14:36;5.75;;;2.47;;
77164;SDS011;66140;50.280;18.660;2023-04-30T09:17:04;5.68;;;2.83;;
77164;SDS011;66140;50.280;18.660;2023-04-30T09:19:30;2.75;;;2.20;;
77164;SDS011;66140;50.280;18.660;2023-04-30T09:21:56;4.90;;;3.17;;
77164;SDS011;66140;50.280;18.660;2023-04-30T09:24:22;5.68;;;2.55;;
77164;SDS011;66140;50.280;18.660;2023-04-30T09:26:48;4.60;;;2.45;;
77164;SDS011;66140;50.280;18.660;2023-04-30T09:29:14;4.30;;;2.50;;
77164;SDS011;66140;50.280;18.660;2023-04-30T09:31:46;3.63;;;2.10;;
77164;SDS011;66140;50.280;18.660;2023-04-30T09:34:12;4.53;;;2.75;;
77164;SDS011;66140;50.280;18.660;2023-04-30T09:36:50;4.80;;;2.33;;
77164;SDS011;66140;50.280;18.660;2023-04-30T09:39:18;4.20;;;2.15;;
77164;SDS011;66140;50.280;18.660;2023-04-30T09:41:44;6.05;;;2.28;;
77164;SDS011;66140;50.280;18.660;2023-04-30T09:44:25;3.85;;;2.15;;
77164;SDS011;66140;50.280;18.660;2023-04-30T09:46:52;2.47;;;2.20;;
77164;SDS011;66140;50.280;18.660;2023-04-30T09:49:17;6.32;;;2.95;;
77164;SDS011;66140;50.280;18.660;2023-04-30T09:51:53;6.30;;;2.47;;
77164;SDS011;66140;50.280;18.660;2023-04-30T09:54:28;6.70;;;2.97;;
77164;SDS011;66140;50.280;18.660;2023-04-30T09:56:56;5.55;;;2.58;;
77164;SDS011;66140;50.280;18.660;2023-04-30T09:59:24;3.17;;;2.20;;
77164;SDS011;66140;50.280;18.660;2023-04-30T10:01:54;4.82;;;2.35;;
77164;SDS011;66140;50.280;18.660;2023-04-30T10:04:30;6.95;;;2.63;;
77164;SDS011;66140;50.280;18.660;2023-04-30T10:06:59;5.70;;;3.10;;
77164;SDS011;66140;50.280;18.660;2023-04-30T10:09:28;4.63;;;2.72;;
77164;SDS011;66140;50.280;18.660;2023-04-30T10:11:58;4.15;;;2.72;;
77164;SDS011;66140;50.280;18.660;2023-04-30T10:14:25;5.72;;;2.97;;
77164;SDS011;66140;50.280;18.660;2023-04-30T10:17:02;8.73;;;2.67;;
77164;SDS011;66140;50.280;18.660;2023-04-30T10:19:33;3.88;;;2.70;;
77164;SDS011;66140;50.280;18.660;2023-04-30T10:22:03;6.57;;;3.03;;
77164;SDS011;66140;50.280;18.660;2023-04-30T10:24:29;6.63;;;2.55;;
77164;SDS011;66140;50.280;18.660;2023-04-30T10:26:55;6.03;;;2.50;;
77164;SDS011;66140;50.280;18.660;2023-04-30T10:29:21;5.30;;;2.80;;
77164;SDS011;66140;50.280;18.660;2023-04-30T10:31:47;4.10;;;2.60;;
77164;SDS011;66140;50.280;18.660;2023-04-30T10:34:17;4.57;;;2.80;;
77164;SDS011;66140;50.280;18.660;2023-04-30T10:36:45;6.18;;;2.97;;
77164;SDS011;66140;50.280;18.660;2023-04-30T10:39:13;3.92;;;1.80;;
77164;SDS011;66140;50.280;18.660;2023-04-30T10:41:45;4.88;;;2.10;;
77164;SDS011;66140;50.280;18.660;2023-04-30T10:44:11;5.30;;;2.00;;
77164;SDS011;66140;50.280;18.660;2023-04-30T10:46:36;3.35;;;2.45;;
77164;SDS011;66140;50.280;18.660;2023-04-30T10:49:02;3.60;;;2.58;;
77164;SDS011;66140;50.280;18.660;2023-04-30T10:51:44;7.40;;;3.10;;
77164;SDS011;66140;50.280;18.660;2023-04-30T10:54:14;5.40;;;3.25;;
77164;SDS011;66140;50.280;18.660;2023-04-30T10:56:43;3.22;;;2.75;;
77164;SDS011;66140;50.280;18.660;2023-04-30T10:59:09;4.07;;;2.53;;
77164;SDS011;66140;50.280;18.660;2023-04-30T11:01:53;5.10;;;2.67;;
77164;SDS011;66140;50.280;18.660;2023-04-30T11:04:20;2.58;;;2.15;;
77164;SDS011;66140;50.280;18.660;2023-04-30T11:06:53;7.13;;;2.75;;
77164;SDS011;66140;50.280;18.660;2023-04-30T11:12:19;3.60;;;2.45;;
77164;SDS011;66140;50.280;18.660;2023-04-30T11:14:52;3.58;;;2.42;;
77164;SDS011;66140;50.280;18.660;2023-04-30T11:17:21;6.75;;;2.60;;
77164;SDS011;66140;50.280;18.660;2023-04-30T11:19:49;3.85;;;2.25;;
77164;SDS011;66140;50.280;18.660;2023-04-30T11:22:20;4.35;;;2.80;;
77164;SDS011;66140;50.280;18.660;2023-04-30T11:24:59;3.33;;;2.20;;
77164;SDS011;66140;50.280;18.660;2023-04-30T11:29:55;3.05;;;2.45;;
77164;SDS011;66140;50.280;18.660;2023-04-30T11:32:22;5.68;;;2.20;;
77164;SDS011;66140;50.280;18.660;2023-04-30T11:34:49;3.42;;;2.35;;
77164;SDS011;66140;50.280;18.660;2023-04-30T11:37:20;5.07;;;2.33;;
77164;SDS011;66140;50.280;18.660;2023-04-30T11:39:48;5.03;;;2.25;;
77164;SDS011;66140;50.280;18.660;2023-04-30T11:42:18;4.00;;;1.98;;
77164;SDS011;66140;50.280;18.660;2023-04-30T11:44:44;5.88;;;2.17;;
77164;SDS011;66140;50.280;18.660;2023-04-30T11:47:10;5.07;;;1.98;;
77164;SDS011;66140;50.280;18.660;2023-04-30T11:49:42;3.33;;;2.30;;
77164;SDS011;66140;50.280;18.660;2023-04-30T11:52:08;3.83;;;2.10;;
77164;SDS011;66140;50.280;18.660;2023-04-30T11:54:39;4.30;;;1.85;;
77164;SDS011;66140;50.280;18.660;2023-04-30T11:57:04;5.30;;;3.08;;
77164;SDS011;66140;50.280;18.660;2023-04-30T11:59:30;5.22;;;2.95;;
77164;SDS011;66140;50.280;18.660;2023-04-30T12:01:56;5.55;;;2.35;;
77164;SDS011;66140;50.280;18.660;2023-04-30T12:04:22;4.07;;;2.25;;
77164;SDS011;66140;50.280;18.660;2023-04-30T12:06:48;3.78;;;2.50;;
77164;SDS011;66140;50.280;18.660;2023-04-30T12:09:14;3.42;;;2.10;;
77164;SDS011;66140;50.280;18.660;2023-04-30T12:11:39;4.20;;;1.75;;
77164;SDS011;66140;50.280;18.660;2023-04-30T12:14:06;2.80;;;1.77;;
77164;SDS011;66140;50.280;18.660;2023-04-30T12:16:50;5.07;;;1.92;;
77164;SDS011;66140;50.280;18.660;2023-04-30T12:19:20;4.72;;;2.10;;
77164;SDS011;66140;50.280;18.660;2023-04-30T12:21:46;4.50;;;2.47;;
77164;SDS011;66140;50.280;18.660;2023-04-30T12:24:22;4.88;;;2.22;;
77164;SDS011;66140;50.280;18.660;2023-04-30T12:26:51;3.60;;;2.10;;
77164;SDS011;66140;50.280;18.660;2023-04-30T12:29:17;3.53;;;2.30;;
77164;SDS011;66140;50.280;18.660;2023-04-30T12:31:43;4.10;;;2.03;;
77164;SDS011;66140;50.280;18.660;2023-04-30T12:34:10;4.07;;;1.70;;
77164;SDS011;66140;50.280;18.660;2023-04-30T12:36:38;4.93;;;2.05;;
77164;SDS011;66140;50.280;18.660;2023-04-30T12:39:07;3.30;;;2.20;;
77164;SDS011;66140;50.280;18.660;2023-04-30T12:41:46;3.67;;;2.03;;
77164;SDS011;66140;50.280;18.660;2023-04-30T12:44:20;3.50;;;1.98;;
77164;SDS011;66140;50.280;18.660;2023-04-30T12:46:51;4.18;;;1.67;;
77164;SDS011;66140;50.280;18.660;2023-04-30T12:51:55;4.78;;;2.05;;
77164;SDS011;66140;50.280;18.660;2023-04-30T12:54:29;4.20;;;1.77;;
77164;SDS011;66140;50.280;18.660;2023-04-30T12:57:00;4.38;;;1.90;;
77164;SDS011;66140;50.280;18.660;2023-04-30T12:59:27;3.90;;;1.70;;
77164;SDS011;66140;50.280;18.660;2023-04-30T13:01:54;2.53;;;1.77;;
77164;SDS011;66140;50.280;18.660;2023-04-30T13:04:20;4.07;;;2.08;;
77164;SDS011;66140;50.280;18.660;2023-04-30T13:06:46;4.60;;;2.25;;
77164;SDS011;66140;50.280;18.660;2023-04-30T13:09:11;3.15;;;2.08;;
77164;SDS011;66140;50.280;18.660;2023-04-30T13:11:37;3.97;;;2.10;;
77164;SDS011;66140;50.280;18.660;2023-04-30T13:14:02;3.95;;;1.80;;
77164;SDS011;66140;50.280;18.660;2023-04-30T13:16:28;8.40;;;2.28;;
77164;SDS011;66140;50.280;18.660;2023-04-30T13:18:55;3.58;;;2.28;;
77164;SDS011;66140;50.280;18.660;2023-04-30T13:21:20;3.05;;;1.98;;
77164;SDS011;66140;50.280;18.660;2023-04-30T13:23:46;4.28;;;2.30;;
77164;SDS011;66140;50.280;18.660;2023-04-30T13:26:12;5.55;;;2.20;;
77164;SDS011;66140;50.280;18.660;2023-04-30T13:28:37;4.45;;;2.13;;
77164;SDS011;66140;50.280;18.660;2023-04-30T13:31:03;5.05;;;2.38;;
77164;SDS011;66140;50.280;18.660;2023-04-30T13:33:28;3.78;;;1.88;;
77164;SDS011;66140;50.280;18.660;2023-04-30T13:35:54;3.60;;;1.90;;
77164;SDS011;66140;50.280;18.660;2023-04-30T13:38:19;3.30;;;1.92;;
77164;SDS011;66140;50.280;18.660;2023-04-30T13:40:44;9.40;;;3.63;;
77164;SDS011;66140;50.280;18.660;2023-04-30T13:43:10;4.43;;;2.10;;
77164;SDS011;66140;50.280;18.660;2023-04-30T13:45:35;5.47;;;2.20;;
77164;SDS011;66140;50.280;18.660;2023-04-30T13:48:00;2.92;;;1.65;;
77164;SDS011;66140;50.280;18.660;2023-04-30T13:50:26;4.75;;;1.95;;
77164;SDS011;66140;50.280;18.660;2023-04-30T13:52:52;3.27;;;1.50;;
77164;SDS011;66140;50.280;18.660;2023-04-30T13:55:17;4.70;;;2.22;;
77164;SDS011;66140;50.280;18.660;2023-04-30T13:57:43;4.85;;;2.28;;
77164;SDS011;66140;50.280;18.660;2023-04-30T14:00:08;4.93;;;2.30;;
77164;SDS011;66140;50.280;18.660;2023-04-30T14:02:34;2.30;;;1.40;;
77164;SDS011;66140;50.280;18.660;2023-04-30T14:05:00;5.03;;;2.08;;
77164;SDS011;66140;50.280;18.660;2023-04-30T14:07:27;4.22;;;1.58;;
77164;SDS011;66140;50.280;18.660;2023-04-30T14:09:53;2.30;;;1.73;;
77164;SDS011;66140;50.280;18.660;2023-04-30T14:12:18;3.47;;;1.70;;
77164;SDS011;66140;50.280;18.660;2023-04-30T14:14:45;6.25;;;1.92;;
77164;SDS011;66140;50.280;18.660;2023-04-30T14:17:10;3.72;;;1.67;;
77164;SDS011;66140;50.280;18.660;2023-04-30T14:19:36;2.95;;;1.92;;
77164;SDS011;66140;50.280;18.660;2023-04-30T14:22:01;2.97;;;1.60;;
77164;SDS011;66140;50.280;18.660;2023-04-30T14:24:26;1.90;;;1.52;;
77164;SDS011;66140;50.280;18.660;2023-04-30T14:26:52;3.17;;;1.60;;
77164;SDS011;66140;50.280;18.660;2023-04-30T14:29:17;2.97;;;1.60;;
77164;SDS011;66140;50.280;18.660;2023-04-30T14:31:43;6.32;;;2.45;;
77164;SDS011;66140;50.280;18.660;2023-04-30T14:34:10;5.63;;;1.92;;
77164;SDS011;66140;50.280;18.660;2023-04-30T14:36:35;6.38;;;2.00;;
77164;SDS011;66140;50.280;18.660;2023-04-30T14:39:02;2.72;;;1.50;;
77164;SDS011;66140;50.280;18.660;2023-04-30T14:41:28;3.58;;;1.52;;
77164;SDS011;66140;50.280;18.660;2023-04-30T14:43:58;2.58;;;1.65;;
77164;SDS011;66140;50.280;18.660;2023-04-30T14:46:42;2.50;;;1.80;;
77164;SDS011;66140;50.280;18.660;2023-04-30T14:49:08;2.40;;;1.35;;
77164;SDS011;66140;50.280;18.660;2023-04-30T14:51:33;7.57;;;2.35;;
77164;SDS011;66140;50.280;18.660;2023-04-30T14:54:00;4.10;;;1.73;;
77164;SDS011;66140;50.280;18.660;2023-04-30T14:56:26;4.72;;;1.35;;
77164;SDS011;66140;50.280;18.660;2023-04-30T14:58:51;4.70;;;1.50;;
77164;SDS011;66140;50.280;18.660;2023-04-30T15:01:17;2.10;;;1.67;;
77164;SDS011;66140;50.280;18.660;2023-04-30T15:03:43;3.00;;;1.90;;
77164;SDS011;66140;50.280;18.660;2023-04-30T15:06:08;3.50;;;1.40;;
77164;SDS011;66140;50.280;18.660;2023-04-30T15:08:34;2.95;;;1.60;;
77164;SDS011;66140;50.280;18.660;2023-04-30T15:11:00;3.38;;;1.58;;
77164;SDS011;66140;50.280;18.660;2023-04-30T15:13:25;2.58;;;1.50;;
77164;SDS011;66140;50.280;18.660;2023-04-30T15:15:51;2.55;;;1.45;;
77164;SDS011;66140;50.280;18.660;2023-04-30T15:18:16;3.42;;;1.58;;
77164;SDS011;66140;50.280;18.660;2023-04-30T15:20:42;4.22;;;1.38;;
77164;SDS011;66140;50.280;18.660;2023-04-30T15:23:07;3.20;;;1.75;;
77164;SDS011;66140;50.280;18.660;2023-04-30T15:25:33;3.75;;;1.48;;
77164;SDS011;66140;50.280;18.660;2023-04-30T15:27:58;3.63;;;1.80;;
77164;SDS011;66140;50.280;18.660;2023-04-30T15:30:24;3.17;;;1.52;;
77164;SDS011;66140;50.280;18.660;2023-04-30T15:32:49;2.72;;;1.27;;
77164;SDS011;66140;50.280;18.660;2023-04-30T15:35:15;2.58;;;1.48;;
77164;SDS011;66140;50.280;18.660;2023-04-30T15:37:40;3.92;;;1.45;;
77164;SDS011;66140;50.280;18.660;2023-04-30T15:40:06;5.03;;;2.35;;
77164;SDS011;66140;50.280;18.660;2023-04-30T15:42:34;3.60;;;2.15;;
77164;SDS011;66140;50.280;18.660;2023-04-30T15:45:01;7.38;;;1.95;;
77164;SDS011;66140;50.280;18.660;2023-04-30T15:47:26;5.70;;;1.80;;
77164;SDS011;66140;50.280;18.660;2023-04-30T15:49:52;2.57;;;1.33;;
77164;SDS011;66140;50.280;18.660;2023-04-30T15:52:17;4.10;;;1.60;;
77164;SDS011;66140;50.280;18.660;2023-04-30T15:54:42;3.17;;;1.40;;
77164;SDS011;66140;50.280;18.660;2023-04-30T15:57:08;3.67;;;1.43;;
77164;SDS011;66140;50.280;18.660;2023-04-30T15:59:33;3.50;;;1.87;;
77164;SDS011;66140;50.280;18.660;2023-04-30T16:01:58;4.77;;;1.73;;
77164;SDS011;66140;50.280;18.660;2023-04-30T16:04:24;3.35;;;1.40;;
77164;SDS011;66140;50.280;18.660;2023-04-30T16:06:49;5.60;;;1.50;;
77164;SDS011;66140;50.280;18.660;2023-04-30T16:09:15;5.43;;;1.50;;
77164;SDS011;66140;50.280;18.660;2023-04-30T16:11:44;4.07;;;1.48;;
77164;SDS011;66140;50.280;18.660;2023-04-30T16:14:11;5.25;;;1.58;;
77164;SDS011;66140;50.280;18.660;2023-04-30T16:16:36;4.00;;;1.65;;
77164;SDS011;66140;50.280;18.660;2023-04-30T16:19:02;4.72;;;2.13;;
77164;SDS011;66140;50.280;18.660;2023-04-30T16:21:27;4.57;;;1.77;;
77164;SDS011;66140;50.280;18.660;2023-04-30T16:23:53;2.78;;;1.38;;
77164;SDS011;66140;50.280;18.660;2023-04-30T16:26:18;2.72;;;1.40;;
77164;SDS011;66140;50.280;18.660;2023-04-30T16:28:44;3.70;;;1.02;;
77164;SDS011;66140;50.280;18.660;2023-04-30T16:31:10;8.35;;;3.28;;
77164;SDS011;66140;50.280;18.660;2023-04-30T16:33:37;4.15;;;1.83;;
77164;SDS011;66140;50.280;18.660;2023-04-30T16:36:03;8.65;;;1.88;;
77164;SDS011;66140;50.280;18.660;2023-04-30T16:38:28;12.00;;;5.38;;
77164;SDS011;66140;50.280;18.660;2023-04-30T16:40:54;10.27;;;4.00;;
77164;SDS011;66140;50.280;18.660;2023-04-30T16:43:19;4.68;;;1.80;;
77164;SDS011;66140;50.280;18.660;2023-04-30T16:45:45;3.38;;;1.40;;
77164;SDS011;66140;50.280;18.660;2023-04-30T16:48:10;3.70;;;1.60;;
77164;SDS011;66140;50.280;18.660;2023-04-30T16:50:36;3.58;;;1.33;;
77164;SDS011;66140;50.280;18.660;2023-04-30T16:53:01;3.72;;;1.70;;
77164;SDS011;66140;50.280;18.660;2023-04-30T16:55:27;6.40;;;1.67;;
77164;SDS011;66140;50.280;18.660;2023-04-30T16:57:52;3.55;;;1.70;;
77164;SDS011;66140;50.280;18.660;2023-04-30T17:00:20;6.57;;;2.22;;
77164;SDS011;66140;50.280;18.660;2023-04-30T17:02:46;6.15;;;2.40;;
77164;SDS011;66140;50.280;18.660;2023-04-30T17:05:16;3.28;;;1.58;;
77164;SDS011;66140;50.280;18.660;2023-04-30T17:07:45;5.10;;;1.75;;
77164;SDS011;66140;50.280;18.660;2023-04-30T17:10:11;3.28;;;1.85;;
77164;SDS011;66140;50.280;18.660;2023-04-30T17:12:37;6.22;;;2.13;;
77164;SDS011;66140;50.280;18.660;2023-04-30T17:15:03;7.63;;;2.55;;
77164;SDS011;66140;50.280;18.660;2023-04-30T17:17:29;5.82;;;2.60;;
77164;SDS011;66140;50.280;18.660;2023-04-30T17:19:55;10.55;;;4.00;;
77164;SDS011;66140;50.280;18.660;2023-04-30T17:22:21;5.93;;;2.20;;
77164;SDS011;66140;50.280;18.660;2023-04-30T17:24:47;5.07;;;2.75;;
77164;SDS011;66140;50.280;18.660;2023-04-30T17:27:13;5.60;;;2.08;;
77164;SDS011;66140;50.280;18.660;2023-04-30T17:29:38;15.30;;;6.70;;
77164;SDS011;66140;50.280;18.660;2023-04-30T17:32:04;7.60;;;2.92;;
77164;SDS011;66140;50.280;18.660;2023-04-30T17:34:29;5.78;;;1.95;;
77164;SDS011;66140;50.280;18.660;2023-04-30T17:36:55;3.78;;;1.80;;
77164;SDS011;66140;50.280;18.660;2023-04-30T17:39:21;7.43;;;1.70;;
77164;SDS011;66140;50.280;18.660;2023-04-30T17:41:46;5.05;;;1.85;;
77164;SDS011;66140;50.280;18.660;2023-04-30T17:44:16;5.78;;;2.22;;
77164;SDS011;66140;50.280;18.660;2023-04-30T17:46:43;8.55;;;2.60;;
77164;SDS011;66140;50.280;18.660;2023-04-30T17:49:10;5.70;;;2.53;;
77164;SDS011;66140;50.280;18.660;2023-04-30T17:51:35;4.40;;;1.90;;
77164;SDS011;66140;50.280;18.660;2023-04-30T17:54:00;4.50;;;2.15;;
77164;SDS011;66140;50.280;18.660;2023-04-30T17:56:26;2.38;;;1.55;;
77164;SDS011;66140;50.280;18.660;2023-04-30T17:58:53;5.75;;;2.60;;
77164;SDS011;66140;50.280;18.660;2023-04-30T18:01:20;6.95;;;3.20;;
77164;SDS011;66140;50.280;18.660;2023-04-30T18:03:48;9.98;;;4.00;;
77164;SDS011;66140;50.280;18.660;2023-04-30T18:06:13;5.95;;;2.45;;
77164;SDS011;66140;50.280;18.660;2023-04-30T18:08:39;5.60;;;2.10;;
77164;SDS011;66140;50.280;18.660;2023-04-30T18:11:04;7.45;;;2.75;;
77164;SDS011;66140;50.280;18.660;2023-04-30T18:13:32;6.50;;;2.72;;
77164;SDS011;66140;50.280;18.660;2023-04-30T18:15:58;7.45;;;3.08;;
77164;SDS011;66140;50.280;18.660;2023-04-30T18:18:23;7.73;;;2.23;;
77164;SDS011;66140;50.280;18.660;2023-04-30T18:20:51;6.47;;;3.05;;
77164;SDS011;66140;50.280;18.660;2023-04-30T18:23:17;7.53;;;2.88;;
77164;SDS011;66140;50.280;18.660;2023-04-30T18:25:42;4.25;;;2.20;;
77164;SDS011;66140;50.280;18.660;2023-04-30T18:28:08;11.30;;;5.75;;
77164;SDS011;66140;50.280;18.660;2023-04-30T18:30:33;8.90;;;4.35;;
77164;SDS011;66140;50.280;18.660;2023-04-30T18:33:01;6.75;;;3.30;;
77164;SDS011;66140;50.280;18.660;2023-04-30T18:35:28;6.90;;;2.58;;
77164;SDS011;66140;50.280;18.660;2023-04-30T18:37:53;9.52;;;2.10;;